createdAt,value
2023-03-06T00:00:06.525Z,62.73
2023-03-06T00:01:34.859Z,62.69
2023-03-06T00:02:37.784Z,62.75
2023-03-06T00:03:40.643Z,62.84
2023-03-06T00:04:43.500Z,62.79
2023-03-06T00:05:46.658Z,62.82
2023-03-06T00:06:49.762Z,63.04
2023-03-06T00:07:52.707Z,63.22
2023-03-06T00:08:55.756Z,63.14
2023-03-06T00:09:58.609Z,63.11
2023-03-06T00:11:01.603Z,62.97
2023-03-06T00:12:04.687Z,63.04
2023-03-06T00:13:12.050Z,63.00
2023-03-06T00:14:16.078Z,63.10
2023-03-06T00:15:19.740Z,63.16
2023-03-06T00:16:23.419Z,63.16
2023-03-06T00:17:28.076Z,63.38
2023-03-06T00:18:30.864Z,63.21
2023-03-06T00:19:33.661Z,63.28
2023-03-06T00:20:37.176Z,63.28
2023-03-06T00:21:41.880Z,63.27
2023-03-06T00:22:45.064Z,63.37
2023-03-06T00:23:47.906Z,63.50
2023-03-06T00:24:53.816Z,63.49
2023-03-06T00:25:56.706Z,63.85
2023-03-06T00:26:59.740Z,63.43
2023-03-06T00:28:02.585Z,63.72
2023-03-06T00:29:05.677Z,63.51
2023-03-06T00:30:11.931Z,63.89
2023-03-06T00:31:14.928Z,63.74
2023-03-06T00:32:17.911Z,63.63
2023-03-06T00:33:20.961Z,63.53
2023-03-06T00:34:23.906Z,63.74
2023-03-06T00:35:26.845Z,63.96
2023-03-06T00:36:29.953Z,63.79
2023-03-06T00:37:33.282Z,63.73
2023-03-06T00:38:37.335Z,63.83
2023-03-06T00:39:40.292Z,63.92
2023-03-06T00:40:43.599Z,63.84
2023-03-06T00:41:47.151Z,63.66
2023-03-06T00:42:50.101Z,63.75
2023-03-06T00:43:55.349Z,63.90
2023-03-06T00:44:58.223Z,63.75
2023-03-06T00:46:01.096Z,63.93
2023-03-06T00:47:04.201Z,63.91
2023-03-06T00:48:07.160Z,64.04
2023-03-06T00:49:10.125Z,63.75
2023-03-06T00:50:13.229Z,64.02
2023-03-06T00:51:17.320Z,64.20
2023-03-06T00:52:20.536Z,64.26
2023-03-06T00:53:23.527Z,64.23
2023-03-06T00:54:26.675Z,64.23
2023-03-06T00:55:31.138Z,64.24
2023-03-06T00:56:34.251Z,64.09
2023-03-06T00:57:37.396Z,64.38
2023-03-06T00:58:40.508Z,64.24
2023-03-06T00:59:43.705Z,64.13
2023-03-06T01:00:47.005Z,64.30
2023-03-06T01:01:50.663Z,64.35
2023-03-06T01:02:54.219Z,64.49
2023-03-06T01:03:58.360Z,64.26
2023-03-06T01:05:01.735Z,64.69
2023-03-06T01:06:04.663Z,64.36
2023-03-06T01:07:10.838Z,64.36
2023-03-06T01:08:16.316Z,64.33
2023-03-06T01:09:19.396Z,64.30
2023-03-06T01:10:22.614Z,64.53
2023-03-06T01:11:25.696Z,64.24
2023-03-06T01:12:28.546Z,64.42
2023-03-06T01:13:31.642Z,64.53
2023-03-06T01:14:34.677Z,64.47
2023-03-06T01:15:38.354Z,64.48
2023-03-06T01:16:41.316Z,64.47
2023-03-06T01:17:45.751Z,64.52
2023-03-06T01:18:50.119Z,64.55
2023-03-06T01:19:53.175Z,64.69
2023-03-06T01:20:58.165Z,64.64
2023-03-06T01:22:01.011Z,64.60
2023-03-06T01:23:03.880Z,64.54
2023-03-06T01:24:07.250Z,64.41
2023-03-06T01:25:11.082Z,64.45
2023-03-06T01:26:14.305Z,64.59
2023-03-06T01:27:17.125Z,64.60
2023-03-06T01:28:20.129Z,64.49
2023-03-06T01:29:23.203Z,64.57
2023-03-06T01:30:27.439Z,64.63
2023-03-06T01:31:30.671Z,64.61
2023-03-06T01:32:33.788Z,64.62
2023-03-06T01:33:37.080Z,64.66
2023-03-06T01:34:40.207Z,64.88
2023-03-06T01:35:43.398Z,64.69
2023-03-06T01:36:46.406Z,64.82
2023-03-06T01:37:49.381Z,64.87
2023-03-06T01:38:52.328Z,64.98
2023-03-06T01:39:55.643Z,64.92
2023-03-06T01:40:58.559Z,64.95
2023-03-06T01:42:02.750Z,65.51
2023-03-06T01:43:26.112Z,65.05
2023-03-06T01:44:29.044Z,65.19
2023-03-06T01:45:34.781Z,65.05
2023-03-06T01:46:44.206Z,65.04
2023-03-06T01:47:47.305Z,65.14
2023-03-06T01:48:54.934Z,65.26
2023-03-06T01:50:00.951Z,65.38
2023-03-06T01:51:04.046Z,65.36
2023-03-06T01:52:18.270Z,65.29
2023-03-06T01:53:21.487Z,65.57
2023-03-06T01:54:35.611Z,65.46
2023-03-06T01:55:38.736Z,65.45
2023-03-06T01:56:45.375Z,65.54
2023-03-06T01:57:55.104Z,65.60
2023-03-06T01:58:59.663Z,65.49
2023-03-06T02:00:08.467Z,65.76
2023-03-06T02:01:19.152Z,65.69
2023-03-06T02:02:22.420Z,65.66
2023-03-06T02:03:27.280Z,65.61
2023-03-06T02:04:30.559Z,65.82
2023-03-06T02:05:34.072Z,65.69
2023-03-06T02:06:40.016Z,65.72
2023-03-06T02:07:44.394Z,66.05
2023-03-06T02:08:52.294Z,66.02
2023-03-06T02:09:55.397Z,65.91
2023-03-06T02:11:25.866Z,65.98
2023-03-06T02:12:28.817Z,65.89
2023-03-06T02:13:32.070Z,66.24
2023-03-06T02:14:35.226Z,66.06
2023-03-06T02:15:38.795Z,66.00
2023-03-06T02:16:42.973Z,66.09
2023-03-06T02:17:48.344Z,65.98
2023-03-06T02:18:52.161Z,66.20
2023-03-06T02:20:02.670Z,66.08
2023-03-06T02:21:09.689Z,66.21
2023-03-06T02:22:12.893Z,66.17
2023-03-06T02:23:37.380Z,66.26
2023-03-06T02:24:52.546Z,66.29
2023-03-06T02:25:56.481Z,66.47
2023-03-06T02:27:03.242Z,66.29
2023-03-06T02:28:11.278Z,66.84
2023-03-06T02:29:21.997Z,66.17
2023-03-06T02:32:00.545Z,66.45
2023-03-06T02:33:05.432Z,66.50
2023-03-06T02:34:14.621Z,66.46
2023-03-06T02:35:22.168Z,66.37
2023-03-06T02:36:25.073Z,66.56
2023-03-06T02:37:29.381Z,66.62
2023-03-06T02:38:44.638Z,66.50
2023-03-06T02:39:53.374Z,66.94
2023-03-06T02:40:58.163Z,66.62
2023-03-06T02:42:02.947Z,66.60
2023-03-06T02:43:07.747Z,66.54
2023-03-06T02:44:10.632Z,66.40
2023-03-06T02:45:15.686Z,66.46
2023-03-06T02:46:18.791Z,66.53
2023-03-06T02:47:22.091Z,66.70
2023-03-06T02:48:25.702Z,66.49
2023-03-06T02:49:28.551Z,67.06
2023-03-06T02:50:32.276Z,66.66
2023-03-06T02:51:37.219Z,66.62
2023-03-06T02:52:40.034Z,66.67
2023-03-06T02:53:43.018Z,66.68
2023-03-06T02:54:45.984Z,66.82
2023-03-06T02:55:50.402Z,66.49
2023-03-06T02:56:53.388Z,66.78
2023-03-06T02:57:56.250Z,66.76
2023-03-06T02:58:59.317Z,66.70
2023-03-06T03:00:02.221Z,66.55
2023-03-06T03:01:05.759Z,66.77
2023-03-06T03:02:09.678Z,66.90
2023-03-06T03:03:12.795Z,66.68
2023-03-06T03:04:15.662Z,66.73
2023-03-06T03:05:18.991Z,66.68
2023-03-06T03:06:24.449Z,66.94
2023-03-06T03:07:27.532Z,66.76
2023-03-06T03:08:30.980Z,66.59
2023-03-06T03:09:37.267Z,66.76
2023-03-06T03:10:40.288Z,66.82
2023-03-06T03:11:43.121Z,66.72
2023-03-06T03:12:46.307Z,66.73
2023-03-06T03:13:49.439Z,66.88
2023-03-06T03:14:56.822Z,66.73
2023-03-06T03:16:07.334Z,67.01
2023-03-06T03:17:10.471Z,66.69
2023-03-06T03:18:13.432Z,66.78
2023-03-06T03:19:16.301Z,66.69
2023-03-06T03:20:21.542Z,66.78
2023-03-06T03:21:24.604Z,66.84
2023-03-06T03:22:29.448Z,67.04
2023-03-06T03:23:32.738Z,66.92
2023-03-06T03:24:35.751Z,66.89
2023-03-06T03:25:38.930Z,66.95
2023-03-06T03:26:41.863Z,66.85
2023-03-06T03:27:48.728Z,66.93
2023-03-06T03:28:51.634Z,67.06
2023-03-06T03:29:58.069Z,66.90
2023-03-06T03:31:09.742Z,67.08
2023-03-06T03:32:12.888Z,66.93
2023-03-06T03:33:17.275Z,66.86
2023-03-06T03:34:20.628Z,66.93
2023-03-06T03:35:23.781Z,66.97
2023-03-06T03:36:27.509Z,66.90
2023-03-06T03:37:30.798Z,66.93
2023-03-06T03:38:34.844Z,67.02
2023-03-06T03:39:37.676Z,67.03
2023-03-06T03:40:40.685Z,67.02
2023-03-06T03:41:43.877Z,66.96
2023-03-06T03:42:47.120Z,67.12
2023-03-06T03:43:50.051Z,67.08
2023-03-06T03:44:53.435Z,67.00
2023-03-06T03:45:57.014Z,67.05
2023-03-06T03:47:00.153Z,66.99
2023-03-06T03:48:03.366Z,66.87
2023-03-06T03:49:06.619Z,66.94
2023-03-06T03:50:10.614Z,67.07
2023-03-06T03:51:16.623Z,67.06
2023-03-06T03:52:22.761Z,66.96
2023-03-06T03:53:25.836Z,67.15
2023-03-06T03:54:29.039Z,67.13
2023-03-06T03:55:32.576Z,67.16
2023-03-06T03:56:35.872Z,67.33
2023-03-06T03:57:43.382Z,67.11
2023-03-06T03:58:46.728Z,67.19
2023-03-06T03:59:50.330Z,67.49
2023-03-06T04:01:03.480Z,67.31
2023-03-06T04:02:06.710Z,67.22
2023-03-06T04:03:13.892Z,67.24
2023-03-06T04:04:19.247Z,67.21
2023-03-06T04:05:22.129Z,67.24
2023-03-06T04:06:25.367Z,67.31
2023-03-06T04:07:28.539Z,67.24
2023-03-06T04:08:32.102Z,67.20
2023-03-06T04:09:35.451Z,67.27
2023-03-06T04:10:39.534Z,67.16
2023-03-06T04:11:43.521Z,67.33
2023-03-06T04:12:46.789Z,67.19
2023-03-06T04:13:49.757Z,67.18
2023-03-06T04:14:53.444Z,67.29
2023-03-06T04:15:56.539Z,67.14
2023-03-06T04:16:59.847Z,67.18
2023-03-06T04:18:02.800Z,67.11
2023-03-06T04:19:05.857Z,67.21
2023-03-06T04:20:10.041Z,67.15
2023-03-06T04:21:13.347Z,67.16
2023-03-06T04:22:16.482Z,67.23
2023-03-06T04:23:19.895Z,67.23
2023-03-06T04:24:22.848Z,67.15
2023-03-06T04:25:26.155Z,67.19
2023-03-06T04:26:29.044Z,67.18
2023-03-06T04:27:31.968Z,67.27
2023-03-06T04:28:35.644Z,67.20
2023-03-06T04:29:38.811Z,67.25
2023-03-06T04:30:42.419Z,67.14
2023-03-06T04:31:45.419Z,67.40
2023-03-06T04:32:48.726Z,67.37
2023-03-06T04:33:51.633Z,67.22
2023-03-06T04:34:54.458Z,67.24
2023-03-06T04:35:58.140Z,67.28
2023-03-06T04:37:03.440Z,67.00
2023-03-06T04:38:06.405Z,67.11
2023-03-06T04:39:09.944Z,67.31
2023-03-06T04:40:22.177Z,67.12
2023-03-06T04:41:25.740Z,67.21
2023-03-06T04:42:28.936Z,67.36
2023-03-06T04:43:31.834Z,67.21
2023-03-06T04:44:34.979Z,67.23
2023-03-06T04:45:37.915Z,67.18
2023-03-06T04:46:41.050Z,67.25
2023-03-06T04:47:44.049Z,67.08
2023-03-06T04:48:47.540Z,67.29
2023-03-06T04:49:50.410Z,67.30
2023-03-06T04:50:53.286Z,67.18
2023-03-06T04:51:56.562Z,67.21
2023-03-06T04:53:03.614Z,67.19
2023-03-06T04:54:06.853Z,67.24
2023-03-06T04:55:13.459Z,67.17
2023-03-06T04:56:16.467Z,67.25
2023-03-06T04:57:19.714Z,67.29
2023-03-06T04:58:22.877Z,67.43
2023-03-06T04:59:26.193Z,67.30
2023-03-06T05:00:30.616Z,67.37
2023-03-06T05:01:33.572Z,67.32
2023-03-06T05:02:36.961Z,67.34
2023-03-06T05:03:39.898Z,67.29
2023-03-06T05:04:43.692Z,67.24
2023-03-06T05:05:46.854Z,67.25
2023-03-06T05:06:49.891Z,67.16
2023-03-06T05:07:53.614Z,67.38
2023-03-06T05:08:57.126Z,67.27
2023-03-06T05:10:00.705Z,67.40
2023-03-06T05:11:04.122Z,67.08
2023-03-06T05:12:07.572Z,67.28
2023-03-06T05:13:13.688Z,67.32
2023-03-06T05:14:16.672Z,67.21
2023-03-06T05:15:19.940Z,67.39
2023-03-06T05:16:22.922Z,67.27
2023-03-06T05:17:26.210Z,67.43
2023-03-06T05:18:29.957Z,67.38
2023-03-06T05:19:32.810Z,67.32
2023-03-06T05:20:36.025Z,67.16
2023-03-06T05:21:38.966Z,67.23
2023-03-06T05:22:42.442Z,67.63
2023-03-06T05:25:03.120Z,67.56
2023-03-06T05:26:11.101Z,67.25
2023-03-06T05:27:16.562Z,67.44
2023-03-06T05:28:19.871Z,67.31
2023-03-06T05:29:23.034Z,67.47
2023-03-06T05:30:26.108Z,67.40
2023-03-06T05:31:29.171Z,67.35
2023-03-06T05:32:34.408Z,67.44
2023-03-06T05:33:38.728Z,67.31
2023-03-06T05:34:41.964Z,67.45
2023-03-06T05:35:48.621Z,67.47
2023-03-06T05:36:51.493Z,67.39
2023-03-06T05:37:54.405Z,67.40
2023-03-06T05:38:57.916Z,67.42
2023-03-06T05:40:00.888Z,67.46
2023-03-06T05:41:03.965Z,67.39
2023-03-06T05:42:07.157Z,67.49
2023-03-06T05:43:11.914Z,67.56
2023-03-06T05:44:14.886Z,67.57
2023-03-06T05:45:18.111Z,67.63
2023-03-06T05:46:21.211Z,67.66
2023-03-06T05:47:24.110Z,67.52
2023-03-06T05:48:27.076Z,67.43
2023-03-06T05:49:36.551Z,67.63
2023-03-06T05:50:40.446Z,67.66
2023-03-06T05:51:43.633Z,67.57
2023-03-06T05:52:46.501Z,67.63
2023-03-06T05:53:49.509Z,67.48
2023-03-06T05:54:54.785Z,67.57
2023-03-06T05:56:03.976Z,67.50
2023-03-06T05:57:06.856Z,67.65
2023-03-06T05:58:09.700Z,67.69
2023-03-06T05:59:12.513Z,67.65
2023-03-06T06:00:16.679Z,67.64
2023-03-06T06:01:21.178Z,67.53
2023-03-06T06:02:24.071Z,67.64
2023-03-06T06:03:27.171Z,67.69
2023-03-06T06:04:30.147Z,67.63
2023-03-06T06:05:33.051Z,67.65
2023-03-06T06:06:36.117Z,67.65
2023-03-06T06:07:39.101Z,67.47
2023-03-06T06:08:42.462Z,67.35
2023-03-06T06:09:45.713Z,67.34
2023-03-06T06:10:50.939Z,67.54
2023-03-06T06:12:01.655Z,67.36
2023-03-06T06:13:04.669Z,67.55
2023-03-06T06:14:07.517Z,67.35
2023-03-06T06:15:10.482Z,67.21
2023-03-06T06:16:16.902Z,67.12
2023-03-06T06:17:20.046Z,66.91
2023-03-06T06:18:22.902Z,66.94
2023-03-06T06:19:28.625Z,66.63
2023-03-06T06:20:31.653Z,66.92
2023-03-06T06:21:35.105Z,66.62
2023-03-06T06:22:38.519Z,66.75
2023-03-06T06:23:41.697Z,66.41
2023-03-06T06:24:44.710Z,66.64
2023-03-06T06:25:47.582Z,66.51
2023-03-06T06:26:55.330Z,66.41
2023-03-06T06:27:58.396Z,66.34
2023-03-06T06:29:01.242Z,66.50
2023-03-06T06:30:05.960Z,66.49
2023-03-06T06:31:13.448Z,66.20
2023-03-06T06:32:16.454Z,66.25
2023-03-06T06:33:19.589Z,66.25
2023-03-06T06:34:25.425Z,66.12
2023-03-06T06:35:28.493Z,65.96
2023-03-06T06:36:31.861Z,66.07
2023-03-06T06:37:34.722Z,66.02
2023-03-06T06:38:37.657Z,65.90
2023-03-06T06:39:40.690Z,65.82
2023-03-06T06:40:43.507Z,65.70
2023-03-06T06:42:05.587Z,65.64
2023-03-06T06:43:14.204Z,65.61
2023-03-06T06:44:18.487Z,65.71
2023-03-06T06:45:21.266Z,65.34
2023-03-06T06:47:14.358Z,65.38
2023-03-06T06:47:50.017Z,65.09
2023-03-06T06:48:56.768Z,64.94
2023-03-06T06:49:59.899Z,65.02
2023-03-06T06:51:02.807Z,64.86
2023-03-06T06:52:06.346Z,64.81
2023-03-06T06:53:09.170Z,64.75
2023-03-06T06:54:12.765Z,64.81
2023-03-06T06:55:16.079Z,64.68
2023-03-06T06:56:19.066Z,64.77
2023-03-06T06:57:22.264Z,64.44
2023-03-06T06:58:25.688Z,64.30
2023-03-06T06:59:28.699Z,64.30
2023-03-06T07:00:31.608Z,63.83
2023-03-06T07:01:34.514Z,64.15
2023-03-06T07:02:37.421Z,64.03
2023-03-06T07:03:41.229Z,63.80
2023-03-06T07:05:00.728Z,63.86
2023-03-06T07:06:07.316Z,63.83
2023-03-06T07:07:10.353Z,63.46
2023-03-06T07:08:13.168Z,63.53
2023-03-06T07:09:16.500Z,63.57
2023-03-06T07:10:20.951Z,63.48
2023-03-06T07:11:24.105Z,63.18
2023-03-06T07:12:26.958Z,63.10
2023-03-06T07:13:29.922Z,62.94
2023-03-06T07:14:32.783Z,62.81
2023-03-06T07:15:35.675Z,62.50
2023-03-06T07:16:38.873Z,62.72
2023-03-06T07:17:41.810Z,62.63
2023-03-06T07:18:45.465Z,62.33
2023-03-06T07:19:48.670Z,62.17
2023-03-06T07:20:53.614Z,61.98
2023-03-06T07:21:56.733Z,62.16
2023-03-06T07:22:59.543Z,61.94
2023-03-06T07:24:02.522Z,62.02
2023-03-06T07:25:06.217Z,62.20
2023-03-06T07:26:09.093Z,61.81
2023-03-06T07:27:12.025Z,61.72
2023-03-06T07:28:16.871Z,61.86
2023-03-06T07:29:20.656Z,61.81
2023-03-06T07:30:23.933Z,61.73
2023-03-06T07:31:27.542Z,61.54
2023-03-06T07:32:30.650Z,61.46
2023-03-06T07:33:33.504Z,61.55
2023-03-06T07:34:36.309Z,61.38
2023-03-06T07:35:39.337Z,61.44
2023-03-06T07:36:42.481Z,61.47
2023-03-06T07:37:45.318Z,61.38
2023-03-06T07:38:48.136Z,61.31
2023-03-06T07:39:50.966Z,61.34
2023-03-06T07:40:53.912Z,61.26
2023-03-06T07:41:57.850Z,60.86
2023-03-06T07:43:16.764Z,60.73
2023-03-06T07:44:22.716Z,61.02
2023-03-06T07:45:25.879Z,60.72
2023-03-06T07:46:28.923Z,60.59
2023-03-06T07:47:31.892Z,60.34
2023-03-06T07:48:36.164Z,60.26
2023-03-06T07:49:38.964Z,60.45
2023-03-06T07:50:42.155Z,60.29
2023-03-06T07:51:45.088Z,60.21
2023-03-06T07:52:49.832Z,60.14
2023-03-06T07:53:52.754Z,59.92
2023-03-06T07:54:55.607Z,60.34
2023-03-06T07:55:58.528Z,60.06
2023-03-06T07:57:01.465Z,60.07
2023-03-06T07:58:04.589Z,60.00
2023-03-06T07:59:07.457Z,59.77
2023-03-06T08:00:13.927Z,59.57
2023-03-06T08:01:20.214Z,59.78
2023-03-06T08:02:23.212Z,59.91
2023-03-06T08:03:26.527Z,60.01
2023-03-06T08:04:30.289Z,60.02
2023-03-06T08:05:33.197Z,59.99
2023-03-06T08:06:36.072Z,59.98
2023-03-06T08:07:38.914Z,59.45
2023-03-06T08:08:44.541Z,59.91
2023-03-06T08:09:48.332Z,59.82
2023-03-06T08:10:51.171Z,59.84
2023-03-06T08:11:54.115Z,59.81
2023-03-06T08:12:56.999Z,59.64
2023-03-06T08:14:00.698Z,59.46
2023-03-06T08:15:04.047Z,59.59
2023-03-06T08:16:07.551Z,59.22
2023-03-06T08:17:10.386Z,59.00
2023-03-06T08:18:13.221Z,59.31
2023-03-06T08:19:16.433Z,59.38
2023-03-06T08:20:19.608Z,59.11
2023-03-06T08:21:27.848Z,59.26
2023-03-06T08:22:30.640Z,59.11
2023-03-06T08:23:34.812Z,59.20
2023-03-06T08:24:37.665Z,59.03
2023-03-06T08:25:40.817Z,59.05
2023-03-06T08:26:43.760Z,59.10
2023-03-06T08:27:47.476Z,58.94
2023-03-06T08:28:55.362Z,59.18
2023-03-06T08:29:58.836Z,59.05
2023-03-06T08:31:34.175Z,58.97
2023-03-06T08:32:37.718Z,58.66
2023-03-06T08:33:41.149Z,58.72
2023-03-06T08:34:45.651Z,58.55
2023-03-06T08:35:49.322Z,58.37
2023-03-06T08:36:52.739Z,58.04
2023-03-06T08:37:55.570Z,57.78
2023-03-06T08:38:59.377Z,57.59
2023-03-06T08:40:04.673Z,57.90
2023-03-06T08:41:08.120Z,57.73
2023-03-06T08:42:11.439Z,57.73
2023-03-06T08:43:14.436Z,57.40
2023-03-06T08:44:17.275Z,57.52
2023-03-06T08:45:20.307Z,57.67
2023-03-06T08:46:25.680Z,57.39
2023-03-06T08:47:28.758Z,57.32
2023-03-06T08:48:31.688Z,57.30
2023-03-06T08:49:36.069Z,57.26
2023-03-06T08:50:41.300Z,57.42
2023-03-06T08:51:44.323Z,57.47
2023-03-06T08:52:47.443Z,57.20
2023-03-06T08:53:51.521Z,57.42
2023-03-06T08:54:54.357Z,56.75
2023-03-06T08:55:57.269Z,56.80
2023-03-06T08:57:06.579Z,56.84
2023-03-06T08:58:09.666Z,56.95
2023-03-06T08:59:13.556Z,56.33
2023-03-06T09:00:17.449Z,56.90
2023-03-06T09:01:23.345Z,56.83
2023-03-06T09:02:26.362Z,56.66
2023-03-06T09:03:29.334Z,56.57
2023-03-06T09:04:32.168Z,56.09
2023-03-06T09:05:34.970Z,56.34
2023-03-06T09:06:40.895Z,56.30
2023-03-06T09:07:43.843Z,56.11
2023-03-06T09:08:47.020Z,55.67
2023-03-06T09:09:49.930Z,56.03
2023-03-06T09:10:52.742Z,55.87
2023-03-06T09:11:56.413Z,55.87
2023-03-06T09:12:59.708Z,55.41
2023-03-06T09:14:03.385Z,55.03
2023-03-06T09:15:07.145Z,55.25
2023-03-06T09:16:11.725Z,54.10
2023-03-06T09:17:14.815Z,54.82
2023-03-06T09:18:18.054Z,54.87
2023-03-06T09:19:21.148Z,54.69
2023-03-06T09:20:24.079Z,54.60
2023-03-06T09:21:28.827Z,54.72
2023-03-06T09:22:32.379Z,54.43
2023-03-06T09:23:37.241Z,54.30
2023-03-06T09:24:40.078Z,54.59
2023-03-06T09:25:43.222Z,53.58
2023-03-06T09:26:47.968Z,53.96
2023-03-06T09:28:08.756Z,54.04
2023-03-06T09:29:40.838Z,54.03
2023-03-06T09:30:50.403Z,54.20
2023-03-06T09:34:31.885Z,53.85
2023-03-06T09:35:35.378Z,53.60
2023-03-06T09:36:53.698Z,52.81
2023-03-06T09:37:58.205Z,53.11
2023-03-06T09:39:01.134Z,52.89
2023-03-06T09:40:06.755Z,52.40
2023-03-06T09:41:31.394Z,52.90
2023-03-06T09:42:36.117Z,52.17
2023-03-06T09:43:52.104Z,52.67
2023-03-06T09:44:58.777Z,51.50
2023-03-06T09:46:26.921Z,52.19
2023-03-06T09:47:38.720Z,51.54
2023-03-06T09:48:58.948Z,51.41
2023-03-06T09:50:20.051Z,50.86
2023-03-06T09:51:37.434Z,50.03
2023-03-06T09:53:15.415Z,49.99
2023-03-06T09:54:26.696Z,50.85
2023-03-06T09:55:33.329Z,50.53
2023-03-06T09:56:37.189Z,50.80
2023-03-06T09:57:58.929Z,50.46
2023-03-06T09:59:13.391Z,50.31
2023-03-06T10:00:23.928Z,50.05
2023-03-06T10:01:40.455Z,50.22
2023-03-06T10:03:00.823Z,49.97
2023-03-06T10:04:40.675Z,49.87
2023-03-06T10:05:50.214Z,49.85
2023-03-06T10:06:58.342Z,49.67
2023-03-06T10:08:17.232Z,49.91
2023-03-06T10:09:38.402Z,50.23
2023-03-06T10:10:50.933Z,49.92
2023-03-06T10:12:12.935Z,50.04
2023-03-06T10:13:41.244Z,49.91
2023-03-06T10:14:48.996Z,49.76
2023-03-06T10:16:02.186Z,49.65
2023-03-06T10:17:06.637Z,49.90
2023-03-06T10:18:11.849Z,50.18
2023-03-06T10:19:17.404Z,50.15
2023-03-06T10:20:23.054Z,50.01
2023-03-06T10:21:59.384Z,50.45
2023-03-06T10:23:12.176Z,50.46
2023-03-06T10:24:53.334Z,50.53
2023-03-06T10:26:08.200Z,49.98
2023-03-06T10:27:46.001Z,49.58
2023-03-06T10:28:57.713Z,49.58
2023-03-06T10:30:04.309Z,49.68
2023-03-06T10:31:15.417Z,48.89
2023-03-06T10:32:32.125Z,47.81
2023-03-06T10:33:56.963Z,48.10
2023-03-06T10:35:01.653Z,48.27
2023-03-06T10:36:04.909Z,48.25
2023-03-06T10:37:30.982Z,48.34
2023-03-06T10:38:38.489Z,48.64
2023-03-06T10:39:41.311Z,48.74
2023-03-06T10:41:09.244Z,48.60
2023-03-06T10:42:12.334Z,48.74
2023-03-06T10:43:15.486Z,48.61
2023-03-06T10:44:23.808Z,48.47
2023-03-06T10:45:26.816Z,48.50
2023-03-06T10:46:44.272Z,48.25
2023-03-06T10:47:47.449Z,48.59
2023-03-06T10:48:58.943Z,48.80
2023-03-06T10:50:07.297Z,48.40
2023-03-06T10:51:19.054Z,48.34
2023-03-06T10:52:22.882Z,48.44
2023-03-06T10:53:29.194Z,48.83
2023-03-06T10:54:35.490Z,49.02
2023-03-06T10:55:38.473Z,48.81
2023-03-06T10:56:44.221Z,48.74
2023-03-06T10:57:47.166Z,48.77
2023-03-06T10:59:05.561Z,48.76
2023-03-06T11:00:43.885Z,47.73
2023-03-06T11:01:51.748Z,46.67
2023-03-06T11:03:13.561Z,46.85
2023-03-06T11:04:32.620Z,47.29
2023-03-06T11:05:35.554Z,47.14
2023-03-06T11:06:38.401Z,46.74
2023-03-06T11:07:54.683Z,46.56
2023-03-06T11:09:25.250Z,46.05
2023-03-06T11:10:31.484Z,46.31
2023-03-06T11:11:37.686Z,46.21
2023-03-06T11:12:43.708Z,46.20
2023-03-06T11:13:57.348Z,45.92
2023-03-06T11:15:15.164Z,46.15
2023-03-06T11:16:25.955Z,46.07
2023-03-06T11:17:32.158Z,45.89
2023-03-06T11:18:42.868Z,46.19
2023-03-06T11:19:45.892Z,46.09
2023-03-06T11:20:53.205Z,46.35
2023-03-06T11:22:05.974Z,45.77
2023-03-06T11:23:17.470Z,46.12
2023-03-06T11:24:20.886Z,45.92
2023-03-06T11:25:33.523Z,46.46
2023-03-06T11:26:56.649Z,46.26
2023-03-06T11:28:06.376Z,46.16
2023-03-06T11:29:28.485Z,46.48
2023-03-06T11:30:47.462Z,46.51
2023-03-06T11:32:07.997Z,46.60
2023-03-06T11:33:28.610Z,46.25
2023-03-06T11:34:41.705Z,46.73
2023-03-06T11:35:54.804Z,46.20
2023-03-06T11:37:07.134Z,46.52
2023-03-06T11:38:27.338Z,46.50
2023-03-06T11:39:55.256Z,46.61
2023-03-06T11:41:01.501Z,46.58
2023-03-06T11:42:27.980Z,46.96
2023-03-06T11:44:00.683Z,46.77
2023-03-06T11:45:32.003Z,46.79
2023-03-06T11:46:50.175Z,46.79
2023-03-06T11:48:14.580Z,46.62
2023-03-06T11:49:33.284Z,46.68
2023-03-06T11:51:06.704Z,46.88
2023-03-06T11:52:20.008Z,46.80
2023-03-06T11:53:40.880Z,46.27
2023-03-06T11:54:44.245Z,47.05
2023-03-06T11:56:23.956Z,46.72
2023-03-06T11:57:58.756Z,46.74
2023-03-06T11:59:26.502Z,46.17
2023-03-06T12:00:33.667Z,46.44
2023-03-06T12:01:42.026Z,45.64
2023-03-06T12:03:09.591Z,45.13
2023-03-06T12:04:49.457Z,45.06
2023-03-06T12:06:03.958Z,44.05
2023-03-06T12:07:26.426Z,43.83
2023-03-06T12:09:01.811Z,44.25
2023-03-06T12:10:13.499Z,44.37
2023-03-06T12:11:38.188Z,43.88
2023-03-06T12:13:06.247Z,44.27
2023-03-06T12:14:56.140Z,44.11
2023-03-06T12:16:24.720Z,43.90
2023-03-06T12:17:30.434Z,43.54
2023-03-06T12:18:54.697Z,43.92
2023-03-06T12:20:20.654Z,43.94
2023-03-06T12:21:42.153Z,44.17
2023-03-06T12:22:57.700Z,43.84
2023-03-06T12:24:44.282Z,43.35
2023-03-06T12:26:25.622Z,43.78
2023-03-06T12:27:39.801Z,43.43
2023-03-06T12:29:21.542Z,43.31
2023-03-06T12:30:32.381Z,43.62
2023-03-06T12:31:38.254Z,43.46
2023-03-06T12:32:53.790Z,42.92
2023-03-06T12:34:06.460Z,43.01
2023-03-06T12:35:31.201Z,43.25
2023-03-06T12:36:34.245Z,42.25
2023-03-06T12:37:57.846Z,42.05
2023-03-06T12:39:13.845Z,41.95
2023-03-06T12:40:39.736Z,42.42
2023-03-06T12:41:51.533Z,42.96
2023-03-06T12:43:20.043Z,42.37
2023-03-06T12:44:31.036Z,42.15
2023-03-06T12:45:37.013Z,42.00
2023-03-06T12:46:46.604Z,41.88
2023-03-06T12:47:54.395Z,41.66
2023-03-06T12:49:23.020Z,41.88
2023-03-06T12:50:38.221Z,41.59
2023-03-06T12:51:44.603Z,41.83
2023-03-06T12:52:49.180Z,41.68
2023-03-06T12:53:53.303Z,41.46
2023-03-06T12:54:58.762Z,41.55
2023-03-06T12:56:03.343Z,41.29
2023-03-06T12:57:09.092Z,41.42
2023-03-06T12:58:30.262Z,41.18
2023-03-06T12:59:35.427Z,41.19
2023-03-06T13:01:15.898Z,41.11
2023-03-06T13:02:39.846Z,41.31
2023-03-06T13:03:51.943Z,41.24
2023-03-06T13:05:30.511Z,41.45
2023-03-06T13:06:51.549Z,40.80
2023-03-06T13:07:57.490Z,41.29
2023-03-06T13:09:25.226Z,41.30
2023-03-06T13:10:32.132Z,41.37
2023-03-06T13:11:47.071Z,41.53
2023-03-06T13:12:58.223Z,41.57
2023-03-06T13:14:39.631Z,41.45
2023-03-06T13:16:09.784Z,41.82
2023-03-06T13:17:45.426Z,41.21
2023-03-06T13:19:11.502Z,41.14
2023-03-06T13:20:14.490Z,40.32
2023-03-06T13:21:42.393Z,41.37
2023-03-06T13:22:47.220Z,41.24
2023-03-06T13:23:52.610Z,40.33
2023-03-06T13:25:17.129Z,40.84
2023-03-06T13:26:26.325Z,40.40
2023-03-06T13:28:21.978Z,40.64
2023-03-06T13:29:36.742Z,41.06
2023-03-06T13:30:40.003Z,41.42
2023-03-06T13:31:42.956Z,41.82
2023-03-06T13:32:45.947Z,41.92
2023-03-06T13:33:53.147Z,42.47
2023-03-06T13:34:56.031Z,42.18
2023-03-06T13:36:00.498Z,42.56
2023-03-06T13:37:23.681Z,42.97
2023-03-06T13:38:39.860Z,43.57
2023-03-06T13:39:54.829Z,43.62
2023-03-06T13:41:22.783Z,43.86
2023-03-06T13:42:36.818Z,44.35
2023-03-06T13:43:45.086Z,44.69
2023-03-06T13:44:51.223Z,44.87
2023-03-06T13:45:54.356Z,45.07
2023-03-06T13:47:05.474Z,45.43
2023-03-06T13:48:43.772Z,45.18
2023-03-06T13:49:48.938Z,45.37
2023-03-06T13:50:53.673Z,46.23
2023-03-06T13:51:59.417Z,45.92
2023-03-06T13:53:21.055Z,46.10
2023-03-06T13:54:42.965Z,46.14
2023-03-06T13:56:23.270Z,46.48
2023-03-06T13:58:08.302Z,46.53
2023-03-06T13:59:25.827Z,47.05
2023-03-06T14:00:34.489Z,47.34
2023-03-06T14:02:23.589Z,47.14
2023-03-06T14:03:51.465Z,47.82
2023-03-06T14:05:01.517Z,48.18
2023-03-06T14:06:37.340Z,48.00
2023-03-06T14:07:46.275Z,48.66
2023-03-06T14:08:49.523Z,48.87
2023-03-06T14:10:16.016Z,49.16
2023-03-06T14:11:22.297Z,49.29
2023-03-06T14:12:32.881Z,49.29
2023-03-06T14:13:46.525Z,49.69
2023-03-06T14:15:03.541Z,49.98
2023-03-06T14:16:17.694Z,49.92
2023-03-06T14:17:37.721Z,50.20
2023-03-06T14:18:47.795Z,50.66
2023-03-06T14:19:51.677Z,50.76
2023-03-06T14:21:03.240Z,51.23
2023-03-06T14:22:13.239Z,51.14
2023-03-06T14:23:25.441Z,51.24
2023-03-06T14:24:40.989Z,51.01
2023-03-06T14:25:46.351Z,51.23
2023-03-06T14:26:51.912Z,50.95
2023-03-06T14:28:02.906Z,51.12
2023-03-06T14:29:21.135Z,50.68
2023-03-06T14:30:26.295Z,50.72
2023-03-06T14:31:31.098Z,51.09
2023-03-06T14:32:34.044Z,51.15
2023-03-06T14:33:59.233Z,51.42
2023-03-06T14:35:02.174Z,51.97
2023-03-06T14:36:09.618Z,52.33
2023-03-06T14:37:22.685Z,52.51
2023-03-06T14:38:28.056Z,52.04
2023-03-06T14:39:39.549Z,52.69
2023-03-06T14:40:45.017Z,52.51